Time;durP1;ratioP1;P1;durP2;ratioP2;P2;SDS_P1;SDS_P2;PMS_P1;PMS_P2;Temp;Humidity;BMP_temperature;BMP_pressure;BME280_temperature;BME280_humidity;BME280_pressure;Samples;Min_cycle;Max_cycle;Signal;HPM_P1;HPM_P2
2023/10/14 00:00:26;;;;;;;15.77;8.20;;;;;;;;;;769278;180;920153;-66
2023/10/14 00:02:38;;;;;;;21.40;8.67;;;;;;;;;;760893;182;915248;-68
2023/10/14 00:05:05;;;;;;;14.80;8.70;;;;;;;;;;757754;185;817286;-67
2023/10/14 00:07:30;;;;;;;17.20;7.73;;;;;;;;;;760099;183;918688;-68
2023/10/14 00:09:59;;;;;;;15.67;9.27;;;;;;;;;;745810;185;918236;-68
2023/10/14 00:12:22;;;;;;;10.50;7.07;;;;;;;;;;772464;181;916161;-68
2023/10/14 00:14:53;;;;;;;17.50;7.80;;;;;;;;;;770520;178;907149;-66
2023/10/14 00:17:18;;;;;;;17.53;8.50;;;;;;;;;;771074;178;912956;-67
2023/10/14 00:19:42;;;;;;;26.93;8.03;;;;;;;;;;757987;185;919054;-67
2023/10/14 00:22:08;;;;;;;15.93;8.20;;;;;;;;;;738225;187;919705;-67
2023/10/14 00:24:38;;;;;;;11.80;8.13;;;;;;;;;;767290;182;921304;-66
2023/10/14 00:27:07;;;;;;;17.13;8.17;;;;;;;;;;768505;181;918426;-68
2023/10/14 00:29:29;;;;;;;21.00;9.98;;;;;;;;;;760210;183;818235;-68
2023/10/14 00:31:52;;;;;;;15.17;7.97;;;;;;;;;;775179;179;919462;-67
2023/10/14 00:34:22;;;;;;;18.23;7.20;;;;;;;;;;767396;181;918456;-66
2023/10/14 00:36:44;;;;;;;14.30;9.37;;;;;;;;;;772773;182;920386;-67
2023/10/14 00:39:13;;;;;;;17.87;8.87;;;;;;;;;;766115;181;826163;-67
2023/10/14 00:41:39;;;;;;;15.37;8.63;;;;;;;;;;766742;181;886218;-67
2023/10/14 00:44:05;;;;;;;20.23;9.73;;;;;;;;;;778672;178;917810;-66
2023/10/14 00:46:31;;;;;;;15.23;9.53;;;;;;;;;;776761;177;924682;-65
2023/10/14 00:49:00;;;;;;;15.57;8.55;;;;;;;;;;761141;184;917440;-67
2023/10/14 00:51:26;;;;;;;20.53;8.70;;;;;;;;;;762808;182;915530;-67
2023/10/14 00:53:52;;;;;;;15.83;8.23;;;;;;;;;;773435;179;887019;-66
2023/10/14 00:56:19;;;;;;;13.90;8.83;;;;;;;;;;768343;182;920495;-66
2023/10/14 00:58:50;;;;;;;22.90;9.57;;;;;;;;;;767484;181;918374;-66
2023/10/14 01:01:11;;;;;;;13.40;8.70;;;;;;;;;;772450;181;916881;-66
2023/10/14 01:03:36;;;;;;;14.90;7.57;;;;;;;;;;768473;178;920021;-67
2023/10/14 01:06:21;;;;;;;16.50;7.90;;;;;;;;;;770988;181;918996;-66
2023/10/14 01:08:38;;;;;;;14.47;9.00;;;;;;;;;;765603;176;918890;-67
2023/10/14 01:10:59;;;;;;;19.40;8.47;;;;;;;;;;769302;181;916974;-66
2023/10/14 01:13:27;;;;;;;14.10;8.10;;;;;;;;;;766595;182;920941;-67
2023/10/14 01:16:01;;;;;;;11.93;7.90;;;;;;;;;;768994;182;819080;-67
2023/10/14 01:18:17;;;;;;;17.98;8.57;;;;;;;;;;773705;181;918483;-67
2023/10/14 01:20:43;;;;;;;13.93;8.80;;;;;;;;;;767512;181;917419;-67
2023/10/14 01:23:17;;;;;;;16.57;9.07;;;;;;;;;;766979;181;918461;-67
2023/10/14 01:25:47;;;;;;;14.07;8.53;;;;;;;;;;769234;180;914715;-65
2023/10/14 01:28:15;;;;;;;14.60;8.07;;;;;;;;;;769411;180;910876;-68
2023/10/14 01:30:42;;;;;;;13.97;9.40;;;;;;;;;;767658;181;910698;-67
2023/10/14 01:33:16;;;;;;;17.13;9.33;;;;;;;;;;752146;184;934925;-66
2023/10/14 01:35:45;;;;;;;16.97;10.13;;;;;;;;;;768531;181;918548;-68
2023/10/14 01:38:08;;;;;;;16.20;9.07;;;;;;;;;;758459;185;919044;-68
2023/10/14 01:40:38;;;;;;;23.17;8.83;;;;;;;;;;770367;178;921641;-67
2023/10/14 01:43:07;;;;;;;19.60;10.93;;;;;;;;;;762908;181;916358;-66
2023/10/14 01:45:39;;;;;;;16.47;9.23;;;;;;;;;;770763;181;817740;-66
2023/10/14 01:50:30;;;;;;;14.53;9.57;;;;;;;;;;770303;181;915410;-66
2023/10/14 01:53:00;;;;;;;16.50;9.90;;;;;;;;;;763400;181;916981;-68
2023/10/14 01:55:21;;;;;;;17.20;9.20;;;;;;;;;;769077;179;919065;-67
2023/10/14 01:57:47;;;;;;;17.53;9.47;;;;;;;;;;759111;184;918288;-68
2023/10/14 02:00:24;;;;;;;14.20;10.10;;;;;;;;;;743882;186;917968;-66
2023/10/14 02:02:59;;;;;;;15.37;9.37;;;;;;;;;;771671;177;921526;-69
2023/10/14 02:05:08;;;;;;;17.17;9.90;;;;;;;;;;772112;180;819392;-68
2023/10/14 02:07:34;;;;;;;20.27;10.73;;;;;;;;;;768902;180;820796;-66
2023/10/14 02:10:03;;;;;;;26.30;11.67;;;;;;;;;;769892;182;919052;-68
2023/10/14 02:12:26;;;;;;;22.23;10.30;;;;;;;;;;771975;181;920766;-67
2023/10/14 02:14:57;;;;;;;15.30;10.40;;;;;;;;;;765061;182;928586;-67
2023/10/14 02:17:24;;;;;;;21.83;12.00;;;;;;;;;;772400;179;919487;-67
2023/10/14 02:19:50;;;;;;;28.13;16.50;;;;;;;;;;777472;177;916254;-67
2023/10/14 02:22:16;;;;;;;31.97;14.80;;;;;;;;;;774169;178;817686;-67
2023/10/14 02:24:40;;;;;;;23.43;15.60;;;;;;;;;;769819;179;920190;-67
2023/10/14 02:27:11;;;;;;;34.77;18.53;;;;;;;;;;770677;181;816734;-67
2023/10/14 02:29:33;;;;;;;35.83;19.47;;;;;;;;;;769452;181;918715;-66
2023/10/14 02:32:00;;;;;;;27.60;16.87;;;;;;;;;;766746;181;940955;-68
2023/10/14 02:34:24;;;;;;;26.48;15.98;;;;;;;;;;772082;181;859284;-67
2023/10/14 02:36:50;;;;;;;28.37;18.17;;;;;;;;;;771926;181;907893;-68
2023/10/14 02:39:16;;;;;;;27.63;17.50;;;;;;;;;;773268;181;915086;-68
2023/10/14 02:41:44;;;;;;;28.23;17.03;;;;;;;;;;767835;180;922806;-68
2023/10/14 02:46:54;;;;;;;25.97;16.00;;;;;;;;;;770890;180;919046;-67
2023/10/14 02:49:14;;;;;;;30.33;17.43;;;;;;;;;;757457;185;943630;-68
2023/10/14 02:51:42;;;;;;;34.10;18.50;;;;;;;;;;753161;182;920337;-68
2023/10/14 02:59:14;;;;;;;30.80;18.57;;;;;;;;;;769535;181;918775;-70
2023/10/14 03:01:36;;;;;;;32.07;17.37;;;;;;;;;;763502;182;817830;-69
2023/10/14 03:04:07;;;;;;;37.13;16.90;;;;;;;;;;769572;181;921376;-68
2023/10/14 03:06:30;;;;;;;27.90;16.93;;;;;;;;;;758490;184;918658;-68
2023/10/14 03:08:59;;;;;;;25.70;14.67;;;;;;;;;;768401;180;913332;-68
2023/10/14 03:11:25;;;;;;;28.25;18.90;;;;;;;;;;769305;180;949724;-68
2023/10/14 03:13:49;;;;;;;27.35;16.65;;;;;;;;;;767946;180;897652;-67
2023/10/14 03:16:17;;;;;;;28.10;17.13;;;;;;;;;;765745;182;824245;-70
2023/10/14 03:18:43;;;;;;;27.60;16.15;;;;;;;;;;762757;181;905700;-68
2023/10/14 03:21:09;;;;;;;30.20;18.10;;;;;;;;;;770965;178;948035;-68
2023/10/14 03:23:35;;;;;;;24.63;17.17;;;;;;;;;;773977;180;884974;-68
2023/10/14 03:26:20;;;;;;;28.83;15.67;;;;;;;;;;765516;181;918672;-69
2023/10/14 03:28:46;;;;;;;24.97;15.90;;;;;;;;;;766816;181;922012;-69
2023/10/14 03:31:16;;;;;;;27.83;15.32;;;;;;;;;;766490;180;913391;-66
2023/10/14 03:33:42;;;;;;;23.23;16.23;;;;;;;;;;776955;181;912524;-67
2023/10/14 03:36:03;;;;;;;25.03;14.70;;;;;;;;;;761642;181;919415;-68
2023/10/14 03:38:39;;;;;;;23.20;15.57;;;;;;;;;;765860;181;912346;-67
2023/10/14 03:41:03;;;;;;;27.60;17.27;;;;;;;;;;769027;179;925889;-66
2023/10/14 03:43:28;;;;;;;31.70;18.13;;;;;;;;;;776683;179;913683;-67
2023/10/14 03:46:03;;;;;;;29.20;16.60;;;;;;;;;;767147;181;899574;-67
2023/10/14 03:48:29;;;;;;;25.83;16.67;;;;;;;;;;769667;178;917796;-67
2023/10/14 03:50:53;;;;;;;25.40;15.57;;;;;;;;;;769895;181;920495;-67
2023/10/14 03:53:18;;;;;;;29.37;16.83;;;;;;;;;;771464;181;920436;-68
2023/10/14 03:55:45;;;;;;;29.60;16.83;;;;;;;;;;769469;181;908241;-67
2023/10/14 03:58:10;;;;;;;32.07;17.83;;;;;;;;;;772314;178;919253;-68
2023/10/14 04:00:37;;;;;;;25.97;17.20;;;;;;;;;;772197;181;923089;-67
2023/10/14 04:03:11;;;;;;;26.73;17.03;;;;;;;;;;767928;181;835848;-67
2023/10/14 04:05:33;;;;;;;26.43;17.10;;;;;;;;;;765907;181;939028;-67
2023/10/14 04:08:00;;;;;;;23.93;16.13;;;;;;;;;;770872;180;896996;-66
2023/10/14 04:10:24;;;;;;;27.73;15.10;;;;;;;;;;777317;180;916740;-68
2023/10/14 04:12:53;;;;;;;30.73;16.53;;;;;;;;;;767896;179;912159;-67
2023/10/14 04:15:34;;;;;;;25.77;16.00;;;;;;;;;;766126;181;846985;-66
2023/10/14 04:18:00;;;;;;;33.30;18.10;;;;;;;;;;761949;181;918049;-67
2023/10/14 04:20:31;;;;;;;32.87;15.30;;;;;;;;;;769377;181;921026;-69
2023/10/14 04:22:55;;;;;;;32.10;17.37;;;;;;;;;;768440;181;935623;-69
2023/10/14 04:25:27;;;;;;;27.10;18.20;;;;;;;;;;767413;180;918887;-67
2023/10/14 04:28:24;;;;;;;26.37;17.80;;;;;;;;;;768332;180;917808;-67
2023/10/14 04:30:32;;;;;;;38.13;18.80;;;;;;;;;;756106;184;923805;-67
2023/10/14 04:35:36;;;;;;;31.93;18.30;;;;;;;;;;768891;180;820824;-67
2023/10/14 04:38:03;;;;;;;38.35;20.05;;;;;;;;;;768506;180;923618;-67
2023/10/14 04:40:37;;;;;;;35.63;19.80;;;;;;;;;;765444;180;1003702;-67
2023/10/14 04:43:54;;;;;;;34.87;20.90;;;;;;;;;;769171;182;916405;-68
2023/10/14 04:46:13;;;;;;;34.33;19.00;;;;;;;;;;764608;181;880405;-67
2023/10/14 04:48:35;;;;;;;31.57;18.33;;;;;;;;;;764263;181;919019;-67
2023/10/14 04:50:56;;;;;;;34.47;20.27;;;;;;;;;;763209;181;919928;-67
2023/10/14 04:53:26;;;;;;;36.80;19.90;;;;;;;;;;763229;180;922853;-68
2023/10/14 04:55:46;;;;;;;33.73;20.53;;;;;;;;;;765231;180;938009;-67
2023/10/14 04:58:13;;;;;;;35.87;20.07;;;;;;;;;;769703;181;920684;-67
2023/10/14 05:00:43;;;;;;;36.17;21.10;;;;;;;;;;770100;181;919316;-68
2023/10/14 05:03:09;;;;;;;32.60;20.80;;;;;;;;;;771987;180;814111;-66
2023/10/14 05:05:34;;;;;;;32.37;19.70;;;;;;;;;;770206;179;919864;-66
2023/10/14 05:08:05;;;;;;;34.37;20.40;;;;;;;;;;763971;179;917793;-67
2023/10/14 05:10:26;;;;;;;29.60;18.10;;;;;;;;;;768823;178;917635;-66
2023/10/14 05:12:52;;;;;;;34.80;20.47;;;;;;;;;;764887;180;911676;-67
2023/10/14 05:15:20;;;;;;;35.20;19.93;;;;;;;;;;772984;181;922258;-67
2023/10/14 05:17:45;;;;;;;32.33;20.50;;;;;;;;;;761962;181;921622;-67
2023/10/14 05:20:18;;;;;;;35.20;19.02;;;;;;;;;;769434;180;995446;-68
2023/10/14 05:22:40;;;;;;;33.90;19.97;;;;;;;;;;772514;180;918465;-67
2023/10/14 05:25:09;;;;;;;39.97;19.50;;;;;;;;;;765338;181;919247;-67
2023/10/14 05:27:45;;;;;;;33.70;18.83;;;;;;;;;;768967;181;922208;-67
2023/10/14 05:30:06;;;;;;;31.93;18.27;;;;;;;;;;765906;181;918953;-67
2023/10/14 05:32:30;;;;;;;33.50;19.37;;;;;;;;;;774115;181;914400;-66
2023/10/14 05:34:53;;;;;;;31.00;21.13;;;;;;;;;;770948;180;817468;-68
2023/10/14 05:37:21;;;;;;;32.67;20.88;;;;;;;;;;769913;180;894820;-67
2023/10/14 05:39:45;;;;;;;31.07;20.07;;;;;;;;;;775374;178;911628;-67
2023/10/14 05:42:16;;;;;;;31.57;19.93;;;;;;;;;;770696;180;920522;-67
2023/10/14 05:44:47;;;;;;;32.23;19.00;;;;;;;;;;771060;181;922407;-67
2023/10/14 05:47:13;;;;;;;35.43;22.00;;;;;;;;;;768928;178;919144;-68
2023/10/14 05:49:39;;;;;;;30.00;18.03;;;;;;;;;;774843;179;813156;-67
2023/10/14 05:52:05;;;;;;;36.63;19.20;;;;;;;;;;769537;180;913461;-66
2023/10/14 05:54:31;;;;;;;31.73;20.50;;;;;;;;;;770477;180;819785;-66
2023/10/14 05:56:56;;;;;;;31.60;17.67;;;;;;;;;;773684;181;921365;-68
2023/10/14 05:59:22;;;;;;;32.63;18.57;;;;;;;;;;770202;181;895600;-67
2023/10/14 06:01:48;;;;;;;29.80;18.40;;;;;;;;;;766867;181;919524;-68
2023/10/14 06:04:14;;;;;;;33.23;18.27;;;;;;;;;;774557;180;815911;-67
2023/10/14 06:06:40;;;;;;;33.87;21.53;;;;;;;;;;773419;180;920076;-68
2023/10/14 06:09:07;;;;;;;31.15;18.98;;;;;;;;;;771434;181;918945;-67
2023/10/14 06:11:32;;;;;;;29.70;18.87;;;;;;;;;;768933;181;913278;-68
2023/10/14 06:13:57;;;;;;;35.57;20.13;;;;;;;;;;776235;178;918571;-67
2023/10/14 06:16:25;;;;;;;32.50;19.27;;;;;;;;;;765849;181;919569;-67
2023/10/14 06:18:49;;;;;;;37.47;23.43;;;;;;;;;;770449;181;922150;-67
2023/10/14 06:21:15;;;;;;;51.37;21.80;;;;;;;;;;772553;181;919005;-67
2023/10/14 06:23:47;;;;;;;41.42;22.80;;;;;;;;;;766648;181;921545;-66
2023/10/14 06:26:07;;;;;;;34.20;19.70;;;;;;;;;;766522;181;874404;-66
2023/10/14 06:28:33;;;;;;;34.83;20.80;;;;;;;;;;775584;181;813891;-68
2023/10/14 06:31:00;;;;;;;38.60;21.87;;;;;;;;;;764197;181;930597;-67
2023/10/14 06:33:26;;;;;;;33.23;19.40;;;;;;;;;;768884;180;921441;-67
2023/10/14 06:35:51;;;;;;;37.17;19.47;;;;;;;;;;767181;181;903539;-67
2023/10/14 06:38:19;;;;;;;27.90;20.53;;;;;;;;;;763387;184;841487;-68
2023/10/14 06:40:49;;;;;;;29.33;20.07;;;;;;;;;;772762;180;816578;-68
2023/10/14 06:43:10;;;;;;;33.87;21.00;;;;;;;;;;759991;181;918180;-68
2023/10/14 06:45:36;;;;;;;36.60;20.73;;;;;;;;;;774774;180;627708;-67
2023/10/14 06:48:03;;;;;;;29.43;17.97;;;;;;;;;;769802;180;619797;-67
2023/10/14 06:50:29;;;;;;;31.43;20.03;;;;;;;;;;772643;181;636512;-67
2023/10/14 06:52:58;;;;;;;27.20;17.73;;;;;;;;;;777134;181;621311;-68
2023/10/14 06:55:23;;;;;;;29.20;19.00;;;;;;;;;;770896;181;636610;-69
2023/10/14 06:57:51;;;;;;;27.80;18.30;;;;;;;;;;769474;180;635270;-68
2023/10/14 07:00:22;;;;;;;35.37;20.27;;;;;;;;;;769469;179;921563;-67
2023/10/14 07:02:41;;;;;;;34.43;19.43;;;;;;;;;;776660;179;921556;-66
2023/10/14 07:05:09;;;;;;;24.13;16.07;;;;;;;;;;768871;182;817995;-67
2023/10/14 07:07:33;;;;;;;28.83;18.23;;;;;;;;;;770698;178;817998;-68
2023/10/14 07:09:59;;;;;;;26.40;18.37;;;;;;;;;;771469;181;817637;-69
2023/10/14 07:12:25;;;;;;;29.70;18.50;;;;;;;;;;768064;181;918007;-66
2023/10/14 07:14:50;;;;;;;28.20;19.40;;;;;;;;;;768146;179;910631;-68
2023/10/14 07:17:22;;;;;;;24.93;17.20;;;;;;;;;;761579;183;916319;-66
2023/10/14 07:19:42;;;;;;;24.50;17.87;;;;;;;;;;770334;179;919783;-67
2023/10/14 07:22:08;;;;;;;25.97;17.50;;;;;;;;;;767972;181;915710;-68
2023/10/14 07:24:35;;;;;;;27.00;17.40;;;;;;;;;;767481;181;916402;-67
2023/10/14 07:26:59;;;;;;;26.77;18.13;;;;;;;;;;758074;185;919187;-67
2023/10/14 07:29:26;;;;;;;29.50;18.60;;;;;;;;;;772228;179;919348;-68
2023/10/14 07:31:52;;;;;;;29.60;17.03;;;;;;;;;;764797;180;942492;-67
2023/10/14 07:34:17;;;;;;;26.27;16.70;;;;;;;;;;775607;178;815971;-67
2023/10/14 07:36:43;;;;;;;24.10;17.40;;;;;;;;;;766964;180;955852;-67
2023/10/14 07:41:40;;;;;;;22.10;14.90;;;;;;;;;;754292;185;816501;-69
2023/10/14 07:44:09;;;;;;;33.27;15.37;;;;;;;;;;768565;181;820455;-67
2023/10/14 07:46:32;;;;;;;25.20;15.10;;;;;;;;;;766390;181;919078;-67
2023/10/14 07:48:58;;;;;;;28.53;16.97;;;;;;;;;;767881;178;919325;-67
2023/10/14 07:51:24;;;;;;;23.10;14.00;;;;;;;;;;767428;181;913785;-67
2023/10/14 07:53:49;;;;;;;23.87;14.20;;;;;;;;;;767397;178;914666;-69
2023/10/14 07:56:15;;;;;;;21.73;14.47;;;;;;;;;;769548;181;918947;-68
2023/10/14 07:58:41;;;;;;;26.70;15.83;;;;;;;;;;758774;185;920722;-67
2023/10/14 08:01:09;;;;;;;21.40;12.90;;;;;;;;;;767887;181;918898;-69
2023/10/14 08:03:36;;;;;;;21.00;12.83;;;;;;;;;;770073;180;916705;-67
2023/10/14 08:06:00;;;;;;;20.63;12.97;;;;;;;;;;775552;181;637024;-68
2023/10/14 08:08:30;;;;;;;20.40;14.23;;;;;;;;;;769860;181;815714;-67
2023/10/14 08:10:51;;;;;;;24.10;14.87;;;;;;;;;;770757;181;813364;-69
2023/10/14 08:13:22;;;;;;;23.63;14.40;;;;;;;;;;768268;180;918543;-67
2023/10/14 08:15:50;;;;;;;22.20;13.37;;;;;;;;;;773200;180;919138;-67
2023/10/14 08:18:13;;;;;;;28.33;16.87;;;;;;;;;;772385;181;909709;-68
2023/10/14 08:20:43;;;;;;;23.50;14.83;;;;;;;;;;772922;181;922228;-68
2023/10/14 08:23:09;;;;;;;19.60;13.73;;;;;;;;;;753282;184;921328;-68
2023/10/14 08:25:34;;;;;;;19.13;13.80;;;;;;;;;;753267;183;919233;-69
2023/10/14 08:28:00;;;;;;;22.33;13.40;;;;;;;;;;771112;181;816794;-69
2023/10/14 08:30:24;;;;;;;19.80;14.20;;;;;;;;;;772309;180;919938;-68
2023/10/14 08:32:50;;;;;;;26.73;15.20;;;;;;;;;;772368;179;918709;-69
2023/10/14 08:35:16;;;;;;;24.27;13.37;;;;;;;;;;772118;180;644438;-69
2023/10/14 08:37:46;;;;;;;21.60;13.30;;;;;;;;;;773362;181;821275;-69
2023/10/14 08:40:15;;;;;;;19.27;13.00;;;;;;;;;;777705;182;815284;-67
2023/10/14 08:42:35;;;;;;;16.27;12.73;;;;;;;;;;775859;181;626060;-68
2023/10/14 08:45:01;;;;;;;20.97;11.90;;;;;;;;;;771570;181;916304;-68
2023/10/14 08:47:27;;;;;;;16.90;12.23;;;;;;;;;;772352;180;920857;-69
2023/10/14 08:49:53;;;;;;;18.17;12.33;;;;;;;;;;766140;178;922597;-66
2023/10/14 08:52:19;;;;;;;28.63;11.63;;;;;;;;;;764937;179;926558;-68
2023/10/14 08:54:46;;;;;;;18.13;12.40;;;;;;;;;;769068;180;923544;-68
2023/10/14 08:57:10;;;;;;;18.00;11.37;;;;;;;;;;762682;181;901092;-69
2023/10/14 08:59:38;;;;;;;13.83;10.07;;;;;;;;;;765851;181;931234;-67
2023/10/14 09:02:02;;;;;;;19.83;11.10;;;;;;;;;;769804;180;927388;-69
2023/10/14 09:04:28;;;;;;;16.08;10.38;;;;;;;;;;773828;180;888455;-67
2023/10/14 09:06:54;;;;;;;18.63;10.67;;;;;;;;;;767827;181;919511;-70
2023/10/14 09:09:23;;;;;;;15.75;10.38;;;;;;;;;;769133;180;919544;-69
2023/10/14 09:11:45;;;;;;;20.50;11.43;;;;;;;;;;768519;182;918743;-71
2023/10/14 09:14:14;;;;;;;16.30;11.53;;;;;;;;;;769279;181;818308;-71
2023/10/14 09:16:39;;;;;;;24.87;13.93;;;;;;;;;;766607;181;919049;-66
2023/10/14 09:19:05;;;;;;;17.65;11.95;;;;;;;;;;767404;179;923451;-67
2023/10/14 09:21:31;;;;;;;21.03;10.80;;;;;;;;;;763274;182;909658;-67
2023/10/14 09:23:57;;;;;;;17.80;11.40;;;;;;;;;;766624;181;818612;-69
2023/10/14 09:26:22;;;;;;;15.20;10.77;;;;;;;;;;768211;181;918207;-68
2023/10/14 09:28:48;;;;;;;28.70;12.03;;;;;;;;;;756307;185;815330;-69
2023/10/14 09:31:13;;;;;;;21.40;11.80;;;;;;;;;;769055;178;816500;-67
2023/10/14 09:33:41;;;;;;;17.57;11.60;;;;;;;;;;766424;182;918930;-68
2023/10/14 09:36:05;;;;;;;18.63;11.93;;;;;;;;;;769906;182;820237;-67
2023/10/14 09:38:32;;;;;;;17.07;11.47;;;;;;;;;;772672;178;807089;-67
2023/10/14 09:40:59;;;;;;;19.87;10.77;;;;;;;;;;772702;180;917218;-67
2023/10/14 09:43:25;;;;;;;17.95;10.60;;;;;;;;;;757938;184;916510;-68
2023/10/14 09:45:51;;;;;;;16.33;10.83;;;;;;;;;;773321;180;923616;-69
2023/10/14 09:48:16;;;;;;;18.20;10.00;;;;;;;;;;765315;181;941373;-69
2023/10/14 09:50:42;;;;;;;14.77;10.20;;;;;;;;;;768754;181;919751;-69
2023/10/14 09:53:08;;;;;;;15.70;10.00;;;;;;;;;;773445;181;920647;-67
2023/10/14 09:55:37;;;;;;;17.03;9.90;;;;;;;;;;769233;180;917171;-68
2023/10/14 09:58:00;;;;;;;18.43;10.87;;;;;;;;;;768810;181;918719;-67
2023/10/14 10:00:26;;;;;;;13.85;9.07;;;;;;;;;;769781;181;919310;-68
2023/10/14 10:02:51;;;;;;;20.20;10.43;;;;;;;;;;768885;181;818104;-68
2023/10/14 10:05:28;;;;;;;13.73;10.60;;;;;;;;;;767231;181;936828;-68
2023/10/14 10:07:54;;;;;;;20.83;11.10;;;;;;;;;;773253;179;902488;-68
2023/10/14 10:10:21;;;;;;;16.67;9.63;;;;;;;;;;755884;186;918808;-69
2023/10/14 10:12:52;;;;;;;12.97;9.30;;;;;;;;;;757280;183;918243;-70
2023/10/14 10:15:19;;;;;;;17.43;9.93;;;;;;;;;;763140;181;919390;-70
2023/10/14 10:17:39;;;;;;;18.30;10.60;;;;;;;;;;770170;181;915624;-68
2023/10/14 10:20:09;;;;;;;17.70;9.23;;;;;;;;;;769724;181;919088;-70
2023/10/14 10:22:50;;;;;;;18.10;8.97;;;;;;;;;;767432;181;821736;-68
2023/10/14 10:25:14;;;;;;;17.10;9.13;;;;;;;;;;768905;180;834786;-69
2023/10/14 10:27:40;;;;;;;18.03;10.90;;;;;;;;;;766716;180;818636;-68
2023/10/14 10:30:11;;;;;;;16.13;9.90;;;;;;;;;;756623;182;913160;-70
2023/10/14 10:32:33;;;;;;;19.37;9.20;;;;;;;;;;754126;183;916778;-69
2023/10/14 10:35:04;;;;;;;12.80;8.80;;;;;;;;;;771714;181;916955;-70
2023/10/14 10:37:30;;;;;;;13.83;7.70;;;;;;;;;;755206;185;793067;-71
2023/10/14 10:39:56;;;;;;;14.70;8.07;;;;;;;;;;770998;178;914951;-70
2023/10/14 10:42:22;;;;;;;13.90;8.03;;;;;;;;;;754592;183;933847;-70
2023/10/14 10:44:48;;;;;;;10.57;7.77;;;;;;;;;;767958;180;892476;-69
2023/10/14 10:47:15;;;;;;;11.83;8.00;;;;;;;;;;771497;181;918807;-71
2023/10/14 10:49:45;;;;;;;10.73;7.37;;;;;;;;;;770092;179;918595;-68
2023/10/14 10:52:13;;;;;;;12.25;7.53;;;;;;;;;;765931;180;909690;-68
2023/10/14 10:54:38;;;;;;;10.47;7.20;;;;;;;;;;768411;181;935780;-69
2023/10/14 10:57:04;;;;;;;16.83;8.20;;;;;;;;;;770741;180;814267;-69
2023/10/14 10:59:30;;;;;;;13.10;8.33;;;;;;;;;;769927;180;919461;-68
2023/10/14 11:01:57;;;;;;;12.93;9.47;;;;;;;;;;769588;181;919505;-68
2023/10/14 11:04:22;;;;;;;13.20;8.30;;;;;;;;;;763690;183;813120;-69
2023/10/14 11:06:48;;;;;;;15.37;8.27;;;;;;;;;;742683;187;919133;-70
2023/10/14 11:09:14;;;;;;;12.03;7.80;;;;;;;;;;740182;188;921321;-70
2023/10/14 11:11:40;;;;;;;12.80;7.80;;;;;;;;;;772494;180;914893;-69
2023/10/14 11:14:11;;;;;;;10.80;8.43;;;;;;;;;;756925;182;918916;-68
2023/10/14 11:16:37;;;;;;;11.67;8.27;;;;;;;;;;753331;182;907464;-68
2023/10/14 11:19:04;;;;;;;15.73;8.50;;;;;;;;;;766896;180;918463;-68
2023/10/14 11:21:29;;;;;;;13.47;8.93;;;;;;;;;;762474;181;815502;-68
2023/10/14 11:23:54;;;;;;;15.87;8.30;;;;;;;;;;767870;181;918013;-70
2023/10/14 11:26:20;;;;;;;16.47;8.43;;;;;;;;;;757508;182;836255;-68
2023/10/14 11:28:48;;;;;;;11.53;8.73;;;;;;;;;;759618;185;919535;-68
2023/10/14 11:31:12;;;;;;;12.53;8.83;;;;;;;;;;768701;182;918108;-70
2023/10/14 11:33:38;;;;;;;13.20;8.00;;;;;;;;;;770581;181;921216;-70
2023/10/14 11:36:04;;;;;;;14.60;8.50;;;;;;;;;;775175;181;911874;-69
2023/10/14 11:38:30;;;;;;;16.70;8.43;;;;;;;;;;768177;180;917415;-70
2023/10/14 11:40:58;;;;;;;13.52;8.65;;;;;;;;;;770767;181;916220;-70
2023/10/14 11:43:22;;;;;;;17.70;8.98;;;;;;;;;;766582;179;920712;-70
2023/10/14 11:45:48;;;;;;;13.13;9.00;;;;;;;;;;762610;182;918323;-69
2023/10/14 11:48:20;;;;;;;15.00;9.30;;;;;;;;;;746673;182;816547;-68
2023/10/14 11:50:47;;;;;;;13.30;9.17;;;;;;;;;;756532;185;919602;-71
2023/10/14 11:53:10;;;;;;;18.17;10.17;;;;;;;;;;762401;182;717216;-70
2023/10/14 11:55:36;;;;;;;15.53;9.03;;;;;;;;;;767920;181;934374;-67
2023/10/14 11:58:04;;;;;;;12.87;8.87;;;;;;;;;;771320;178;914588;-69
2023/10/14 12:00:28;;;;;;;16.30;9.73;;;;;;;;;;774432;181;939625;-69
2023/10/14 12:02:54;;;;;;;17.70;9.97;;;;;;;;;;770605;179;904455;-66
2023/10/14 12:05:19;;;;;;;17.97;9.97;;;;;;;;;;757064;182;918669;-68
2023/10/14 12:07:47;;;;;;;17.47;9.30;;;;;;;;;;770838;178;917524;-69
2023/10/14 12:10:11;;;;;;;19.90;9.50;;;;;;;;;;774609;180;900258;-68
2023/10/14 12:12:38;;;;;;;12.60;8.30;;;;;;;;;;766982;181;919825;-69
2023/10/14 12:15:05;;;;;;;17.67;8.77;;;;;;;;;;775820;177;919320;-69
2023/10/14 12:17:29;;;;;;;15.87;9.60;;;;;;;;;;772914;180;814732;-68
2023/10/14 12:19:57;;;;;;;13.30;10.33;;;;;;;;;;768635;181;920360;-70
2023/10/14 12:22:21;;;;;;;15.70;9.73;;;;;;;;;;767114;180;914448;-69
2023/10/14 12:24:47;;;;;;;16.40;8.55;;;;;;;;;;774107;178;862387;-68
2023/10/14 12:27:14;;;;;;;16.27;9.10;;;;;;;;;;770123;181;905250;-67
2023/10/14 12:29:40;;;;;;;16.40;9.10;;;;;;;;;;769268;181;904871;-68
2023/10/14 12:32:12;;;;;;;12.70;8.90;;;;;;;;;;766626;178;917720;-68
2023/10/14 12:34:32;;;;;;;15.90;9.17;;;;;;;;;;775320;178;920226;-70
2023/10/14 12:36:58;;;;;;;14.33;8.40;;;;;;;;;;754964;184;918367;-68
2023/10/14 12:39:33;;;;;;;12.30;7.73;;;;;;;;;;771506;178;918148;-69
2023/10/14 12:41:53;;;;;;;18.10;8.13;;;;;;;;;;758619;185;918112;-69
2023/10/14 12:44:18;;;;;;;13.97;9.40;;;;;;;;;;770606;181;854671;-69
2023/10/14 12:46:45;;;;;;;17.77;8.57;;;;;;;;;;768880;182;919109;-69
2023/10/14 12:49:10;;;;;;;12.50;8.20;;;;;;;;;;775742;181;616889;-70
2023/10/14 12:51:42;;;;;;;15.70;9.13;;;;;;;;;;774322;181;634558;-69
2023/10/14 12:54:03;;;;;;;12.60;9.53;;;;;;;;;;750524;184;919713;-68
2023/10/14 12:56:27;;;;;;;17.80;9.37;;;;;;;;;;767538;182;1021715;-68
2023/10/14 12:58:53;;;;;;;15.03;8.97;;;;;;;;;;771842;181;928629;-68
2023/10/14 13:01:20;;;;;;;12.83;9.57;;;;;;;;;;766490;181;917130;-69
2023/10/14 13:03:46;;;;;;;12.60;9.43;;;;;;;;;;770558;182;915995;-68
2023/10/14 13:06:12;;;;;;;16.37;8.63;;;;;;;;;;761594;183;624081;-68
2023/10/14 13:08:38;;;;;;;17.60;9.87;;;;;;;;;;768876;181;905472;-68
2023/10/14 13:11:04;;;;;;;13.85;8.77;;;;;;;;;;768570;181;917855;-67
2023/10/14 13:13:30;;;;;;;13.47;8.67;;;;;;;;;;770612;181;811953;-68
2023/10/14 13:15:55;;;;;;;14.50;10.02;;;;;;;;;;774939;179;916324;-69
2023/10/14 13:18:24;;;;;;;15.03;10.00;;;;;;;;;;771009;178;952275;-68
2023/10/14 13:20:47;;;;;;;14.93;8.60;;;;;;;;;;765112;181;918799;-68
2023/10/14 13:23:14;;;;;;;14.40;8.93;;;;;;;;;;767525;181;815545;-68
2023/10/14 13:25:39;;;;;;;16.10;9.90;;;;;;;;;;769959;180;921158;-68
2023/10/14 13:28:09;;;;;;;18.43;9.53;;;;;;;;;;770057;180;919905;-68
2023/10/14 13:30:35;;;;;;;15.30;9.43;;;;;;;;;;761946;185;717515;-68
2023/10/14 13:33:01;;;;;;;13.90;9.67;;;;;;;;;;760350;184;916365;-68
2023/10/14 13:35:27;;;;;;;14.20;8.37;;;;;;;;;;774822;178;920831;-67
2023/10/14 13:37:55;;;;;;;21.85;8.00;;;;;;;;;;773653;178;919381;-67
2023/10/14 13:40:21;;;;;;;13.83;7.73;;;;;;;;;;771652;180;821916;-68
2023/10/14 13:42:48;;;;;;;14.30;8.07;;;;;;;;;;747762;184;1021568;-68
2023/10/14 13:45:15;;;;;;;11.87;7.60;;;;;;;;;;768071;177;932937;-68
2023/10/14 13:47:41;;;;;;;12.93;7.53;;;;;;;;;;773647;179;914847;-68
2023/10/14 13:50:06;;;;;;;12.87;8.03;;;;;;;;;;768111;180;908727;-68
2023/10/14 13:52:32;;;;;;;11.77;7.40;;;;;;;;;;768813;180;918626;-68
2023/10/14 13:54:57;;;;;;;9.80;7.70;;;;;;;;;;771663;181;813711;-67
2023/10/14 13:57:23;;;;;;;12.63;8.83;;;;;;;;;;764955;181;916056;-68
2023/10/14 13:59:51;;;;;;;13.20;8.33;;;;;;;;;;770972;181;815991;-67
2023/10/14 14:02:15;;;;;;;23.43;8.67;;;;;;;;;;766630;181;911592;-68
2023/10/14 14:04:41;;;;;;;12.20;8.43;;;;;;;;;;766553;178;916100;-68
2023/10/14 14:07:07;;;;;;;12.27;9.87;;;;;;;;;;766155;181;919284;-68
2023/10/14 14:09:33;;;;;;;12.60;8.10;;;;;;;;;;766013;181;873713;-67
2023/10/14 14:11:59;;;;;;;11.87;7.90;;;;;;;;;;769670;182;919341;-67
2023/10/14 14:14:24;;;;;;;13.63;9.43;;;;;;;;;;750108;182;816635;-68
2023/10/14 14:16:50;;;;;;;16.73;8.33;;;;;;;;;;756304;182;923370;-68
2023/10/14 14:19:18;;;;;;;10.30;7.57;;;;;;;;;;756551;183;919443;-68